Time;durP1;ratioP1;P1;durP2;ratioP2;P2;SDS_P1;SDS_P2;PMS_P1;PMS_P2;Temp;Humidity;BMP_temperature;BMP_pressure;BME280_temperature;BME280_humidity;BME280_pressure;Samples;Min_cycle;Max_cycle;Signal;HPM_P1;HPM_P2
2021/12/23 00:02:21;;;;;;;50.50;19.40;;;;;;;-5.03;86.74;100184.84;104136;1305;24197;-27
2021/12/23 00:04:47;;;;;;;35.90;15.60;;;;;;;-5.14;86.84;100182.27;104022;1301;24293;-25
2021/12/23 00:07:13;;;;;;;42.90;15.80;;;;;;;-5.16;87.31;100182.56;103812;1310;24251;-25
2021/12/23 00:12:08;;;;;;;54.70;23.20;;;;;;;-5.22;86.62;100185.45;103957;1314;24385;-25
2021/12/23 00:14:34;;;;;;;53.30;20.90;;;;;;;-5.30;86.53;100185.90;103793;1314;24133;-25
2021/12/23 00:24:25;;;;;;;53.40;17.20;;;;;;;-5.46;87.56;100176.73;103945;1315;22805;-28
2021/12/23 00:26:51;;;;;;;58.50;19.80;;;;;;;-5.48;88.27;100176.80;104070;1313;22899;-25
2021/12/23 00:29:17;;;;;;;62.20;22.30;;;;;;;-5.52;88.17;100174.23;103948;1314;24188;-29
2021/12/23 00:31:43;;;;;;;79.60;25.60;;;;;;;-5.50;88.27;100170.48;103897;1313;24250;-25
2021/12/23 00:34:10;;;;;;;56.00;21.00;;;;;;;-5.57;88.11;100169.25;103914;1314;25299;-28
2021/12/23 00:36:38;;;;;;;58.20;20.40;;;;;;;-5.60;88.15;100166.25;103986;1311;24144;-25
2021/12/23 00:39:07;;;;;;;56.80;20.00;;;;;;;-5.63;88.55;100167.25;103737;1310;22942;-29
2021/12/23 00:41:32;;;;;;;83.70;22.90;;;;;;;-5.64;88.27;100165.20;103669;1307;24289;-25
2021/12/23 00:43:59;;;;;;;60.40;23.60;;;;;;;-5.65;88.14;100164.20;103951;1312;22472;-29
2021/12/23 00:46:25;;;;;;;56.60;19.00;;;;;;;-5.68;87.85;100165.77;104129;1314;24151;-26
2021/12/23 00:48:51;;;;;;;54.60;20.40;;;;;;;-5.73;88.08;100164.95;103765;1307;22644;-25
2021/12/23 00:51:19;;;;;;;60.80;20.90;;;;;;;-5.77;88.90;100160.98;104014;1314;24316;-25
2021/12/23 00:53:47;;;;;;;65.60;24.90;;;;;;;-5.78;88.32;100157.40;104079;1310;24157;-28
2021/12/23 00:56:14;;;;;;;60.30;20.00;;;;;;;-5.83;88.31;100155.34;104065;1316;23907;-25
2021/12/23 00:58:40;;;;;;;45.60;18.70;;;;;;;-5.87;88.19;100153.45;104032;1314;22557;-25
2021/12/23 01:01:07;;;;;;;75.70;22.80;;;;;;;-5.92;88.63;100152.98;104004;1314;22892;-29
2021/12/23 01:03:33;;;;;;;47.50;17.50;;;;;;;-5.97;88.76;100156.03;104040;1312;22459;-24
2021/12/23 01:05:59;;;;;;;65.60;21.90;;;;;;;-6.01;88.87;100152.05;104041;1310;22458;-27
2021/12/23 01:08:25;;;;;;;58.40;21.40;;;;;;;-6.03;89.57;100145.38;104005;1305;23929;-26
2021/12/23 01:10:55;;;;;;;55.20;19.10;;;;;;;-6.09;89.12;100140.59;103914;1314;22464;-28
2021/12/23 01:13:25;;;;;;;71.80;22.00;;;;;;;-6.12;89.25;100142.43;104225;1312;22533;-29
2021/12/23 01:18:23;;;;;;;62.10;19.50;;;;;;;-6.19;89.53;100133.73;103919;1314;22460;-29
2021/12/23 01:20:52;;;;;;;77.10;21.10;;;;;;;-6.23;89.70;100129.73;103950;1310;24121;-26
2021/12/23 01:23:20;;;;;;;71.50;23.60;;;;;;;-6.24;90.15;100129.09;103939;1315;22781;-25
2021/12/23 01:25:45;;;;;;;73.00;20.00;;;;;;;-6.21;89.91;100130.70;103885;1304;24195;-28
2021/12/23 01:28:11;;;;;;;64.40;23.90;;;;;;;-6.27;89.97;100122.45;104085;1315;24164;-28
2021/12/23 01:30:37;;;;;;;56.50;16.20;;;;;;;-6.29;89.87;100117.48;103907;1314;23294;-28
2021/12/23 01:33:04;;;;;;;71.90;22.80;;;;;;;-6.32;90.38;100118.31;104001;1304;24163;-25
2021/12/23 01:35:30;;;;;;;68.90;23.10;;;;;;;-6.32;90.26;100117.47;103894;1312;22724;-28
2021/12/23 01:37:56;;;;;;;61.80;20.00;;;;;;;-6.36;90.21;100114.32;103812;1304;22786;-28
2021/12/23 01:40:24;;;;;;;106.70;30.50;;;;;;;-6.36;90.23;100113.27;103921;1312;24177;-30
2021/12/23 01:42:50;;;;;;;58.00;21.10;;;;;;;-6.40;90.04;100111.22;103941;1314;24133;-25
2021/12/23 01:45:19;;;;;;;82.80;22.90;;;;;;;-6.41;91.25;100104.77;103880;1312;22552;-25
2021/12/23 01:47:45;;;;;;;58.70;19.20;;;;;;;-6.45;91.16;100102.17;104057;1311;24183;-28
2021/12/23 01:50:11;;;;;;;70.20;25.20;;;;;;;-6.48;90.82;100102.69;103962;1304;22466;-29
2021/12/23 01:52:38;;;;;;;60.20;19.90;;;;;;;-6.51;90.75;100099.16;104069;1314;23808;-25
2021/12/23 01:55:06;;;;;;;68.50;22.20;;;;;;;-6.51;90.53;100098.63;104306;1314;23907;-25
2021/12/23 01:57:33;;;;;;;63.90;19.80;;;;;;;-6.55;90.32;100092.73;104155;1304;24213;-28
2021/12/23 01:59:59;;;;;;;55.50;18.20;;;;;;;-6.58;90.26;100089.36;103814;1314;22574;-27
2021/12/23 02:02:26;;;;;;;67.80;21.70;;;;;;;-6.58;90.85;100087.64;103982;1310;24205;-25
2021/12/23 02:04:53;;;;;;;52.70;19.10;;;;;;;-6.58;90.32;100089.38;104010;1314;23790;-28
2021/12/23 02:07:19;;;;;;;85.20;23.50;;;;;;;-6.60;90.22;100087.39;104168;1313;24131;-25
2021/12/23 02:09:45;;;;;;;67.10;22.50;;;;;;;-6.61;90.57;100084.30;104156;1312;22794;-28
2021/12/23 02:12:12;;;;;;;95.40;23.80;;;;;;;-6.64;90.62;100082.36;104077;1310;22555;-29
2021/12/23 02:14:38;;;;;;;43.30;16.80;;;;;;;-6.70;91.18;100080.03;103879;1313;22848;-25
2021/12/23 02:17:04;;;;;;;49.50;18.80;;;;;;;-6.69;91.55;100073.35;104333;1304;24304;-28
2021/12/23 02:19:30;;;;;;;57.70;20.80;;;;;;;-6.70;91.09;100068.86;104107;1312;23271;-29
2021/12/23 02:21:55;;;;;;;68.90;20.10;;;;;;;-6.70;91.06;100062.98;104009;1302;22719;-25
2021/12/23 02:24:21;;;;;;;76.30;20.20;;;;;;;-6.70;90.81;100061.54;103864;1315;22559;-25
2021/12/23 02:26:47;;;;;;;65.30;20.80;;;;;;;-6.67;90.92;100059.83;103735;1312;24173;-28
2021/12/23 02:29:13;;;;;;;78.70;23.70;;;;;;;-6.68;91.05;100051.55;103793;1313;24295;-29
2021/12/23 02:31:39;;;;;;;62.90;23.50;;;;;;;-6.68;91.00;100051.36;103748;1310;24269;-28
2021/12/23 02:34:05;;;;;;;55.30;21.40;;;;;;;-6.67;91.34;100044.86;103835;1313;22705;-25
2021/12/23 02:36:31;;;;;;;52.60;21.10;;;;;;;-6.61;92.06;100039.36;103745;1314;24133;-25
2021/12/23 02:38:58;;;;;;;68.70;22.50;;;;;;;-6.64;91.47;100032.86;103751;1314;24153;-28
2021/12/23 02:41:24;;;;;;;61.70;22.00;;;;;;;-6.66;90.94;100026.85;103906;1311;24133;-25
2021/12/23 02:43:50;;;;;;;79.80;24.10;;;;;;;-6.65;91.23;100021.95;103828;1304;24186;-29
2021/12/23 02:46:18;;;;;;;63.40;21.00;;;;;;;-6.66;90.83;100023.56;103850;1312;24377;-28
2021/12/23 02:48:43;;;;;;;79.10;22.10;;;;;;;-6.71;91.35;100019.29;103808;1310;22472;-29
2021/12/23 02:51:11;;;;;;;68.10;23.10;;;;;;;-6.72;91.31;100013.75;103831;1312;24457;-25
2021/12/23 02:53:37;;;;;;;75.60;24.70;;;;;;;-6.76;91.68;100013.11;103612;1314;24301;-25
2021/12/23 02:56:05;;;;;;;85.10;23.40;;;;;;;-6.77;91.78;100005.27;103774;1314;22933;-28
2021/12/23 02:58:32;;;;;;;79.20;23.30;;;;;;;-6.80;91.24;100002.45;103694;1314;24217;-25
2021/12/23 03:00:59;;;;;;;81.90;20.70;;;;;;;-6.83;91.30;100003.15;103744;1314;24157;-28
2021/12/23 03:03:25;;;;;;;63.50;21.70;;;;;;;-6.87;91.41;100001.92;103727;1313;24349;-28
2021/12/23 03:05:53;;;;;;;64.90;21.20;;;;;;;-6.94;91.17;99996.89;103761;1305;24152;-28
2021/12/23 03:08:26;;;;;;;67.50;22.50;;;;;;;-6.97;91.02;99990.59;103769;1312;24252;-28
2021/12/23 03:10:51;;;;;;;81.40;25.70;;;;;;;-7.01;91.32;99987.46;103716;1314;24162;-29
2021/12/23 03:13:17;;;;;;;59.20;21.10;;;;;;;-7.01;91.59;99986.41;103792;1312;24253;-25
2021/12/23 03:15:43;;;;;;;74.40;20.90;;;;;;;-7.04;91.23;99979.92;103836;1312;24217;-28
2021/12/23 03:18:09;;;;;;;70.50;22.30;;;;;;;-7.08;91.57;99973.81;103757;1312;24290;-28
2021/12/23 03:20:34;;;;;;;72.60;22.90;;;;;;;-7.10;91.51;99975.67;103706;1309;24188;-26
2021/12/23 03:23:00;;;;;;;62.30;22.00;;;;;;;-7.14;91.06;99973.77;103619;1313;24248;-25
2021/12/23 03:25:26;;;;;;;62.40;23.00;;;;;;;-7.18;91.02;99975.86;103738;1312;24279;-28
2021/12/23 03:27:52;;;;;;;59.30;22.00;;;;;;;-7.17;91.88;99978.05;103556;1313;24248;-25
2021/12/23 03:30:18;;;;;;;77.00;23.30;;;;;;;-7.18;92.78;99973.06;103709;1299;24248;-25
2021/12/23 03:32:44;;;;;;;68.80;25.20;;;;;;;-7.19;92.80;99971.91;103716;1315;24154;-25
2021/12/23 03:35:11;;;;;;;63.10;20.30;;;;;;;-7.21;92.44;99966.45;103778;1311;24188;-25
2021/12/23 03:37:37;;;;;;;81.20;22.30;;;;;;;-7.23;92.21;99964.45;103810;1302;22494;-28
2021/12/23 03:40:04;;;;;;;69.90;24.20;;;;;;;-7.25;91.95;99963.51;103756;1300;22560;-25
2021/12/23 03:42:29;;;;;;;82.10;24.70;;;;;;;-7.29;91.67;99958.60;103727;1312;24581;-25
2021/12/23 03:44:55;;;;;;;58.30;17.40;;;;;;;-7.31;91.74;99953.82;103742;1314;24266;-25
2021/12/23 03:47:21;;;;;;;77.20;21.80;;;;;;;-7.32;91.93;99951.95;103786;1311;24310;-26
2021/12/23 03:49:50;;;;;;;91.30;22.50;;;;;;;-7.34;91.76;99945.27;103649;1311;22591;-26
2021/12/23 03:52:16;;;;;;;69.80;23.90;;;;;;;-7.35;92.28;99943.94;103699;1313;22729;-29
2021/12/23 03:54:41;;;;;;;74.10;22.10;;;;;;;-7.38;91.87;99936.05;103745;1310;24149;-25
2021/12/23 03:57:07;;;;;;;51.70;20.70;;;;;;;-7.41;92.43;99932.89;103806;1310;24196;-25
2021/12/23 03:59:34;;;;;;;64.30;19.20;;;;;;;-7.42;92.49;99926.36;103031;1313;1002091;-29
2021/12/23 04:02:01;;;;;;;56.60;18.90;;;;;;;-7.42;92.97;99923.05;103805;1314;24404;-26
2021/12/23 04:04:27;;;;;;;63.80;21.90;;;;;;;-7.40;92.80;99922.96;103806;1313;24172;-26
2021/12/23 04:06:53;;;;;;;74.60;23.00;;;;;;;-7.39;92.46;99920.83;103798;1312;24165;-28
2021/12/23 04:09:19;;;;;;;77.90;22.50;;;;;;;-7.39;92.79;99915.58;103726;1313;24301;-26
2021/12/23 04:11:45;;;;;;;60.90;20.10;;;;;;;-7.38;93.12;99917.13;103690;1311;24150;-29
2021/12/23 04:14:11;;;;;;;45.70;17.10;;;;;;;-7.38;92.85;99911.20;103801;1312;24181;-25
2021/12/23 04:16:37;;;;;;;66.30;23.70;;;;;;;-7.38;93.55;99909.08;103806;1312;24277;-25
2021/12/23 04:19:07;;;;;;;68.40;22.90;;;;;;;-7.37;93.28;99905.07;103722;1314;24152;-26
2021/12/23 04:21:33;;;;;;;65.50;21.40;;;;;;;-7.34;93.20;99903.36;103772;1312;24213;-29
2021/12/23 04:23:59;;;;;;;56.80;19.80;;;;;;;-7.31;93.36;99898.36;103849;1312;24340;-29
2021/12/23 04:26:25;;;;;;;61.40;19.60;;;;;;;-7.30;93.48;99889.58;103626;1308;22437;-29
2021/12/23 04:28:52;;;;;;;68.50;23.10;;;;;;;-7.29;93.54;99886.23;103860;1314;24132;-25
2021/12/23 04:31:20;;;;;;;72.20;22.50;;;;;;;-7.28;93.37;99882.00;103760;1314;24164;-26
2021/12/23 04:33:46;;;;;;;48.40;19.80;;;;;;;-7.22;93.66;99879.13;103794;1313;22460;-26
2021/12/23 04:36:12;;;;;;;66.50;22.10;;;;;;;-7.21;93.42;99873.70;103760;1314;24152;-29
2021/12/23 04:38:39;;;;;;;54.20;20.20;;;;;;;-7.25;93.19;99870.92;103621;1307;24281;-26
2021/12/23 04:41:05;;;;;;;60.90;22.00;;;;;;;-7.24;93.61;99866.73;103538;1310;24192;-26
2021/12/23 04:43:31;;;;;;;53.30;18.40;;;;;;;-7.23;93.25;99862.14;103851;1313;22584;-29
2021/12/23 04:45:57;;;;;;;87.60;25.70;;;;;;;-7.21;93.80;99854.73;103902;1305;24317;-26
2021/12/23 04:48:23;;;;;;;55.00;20.90;;;;;;;-7.19;93.42;99859.31;103700;1312;24152;-29
2021/12/23 04:50:49;;;;;;;60.20;21.20;;;;;;;-7.16;93.59;99854.85;103742;1301;22454;-25
2021/12/23 04:53:15;;;;;;;57.70;18.50;;;;;;;-7.12;93.04;99856.37;103862;1312;22461;-25
2021/12/23 04:55:42;;;;;;;75.90;22.20;;;;;;;-7.15;92.85;99851.13;103811;1314;22463;-29
2021/12/23 04:58:08;;;;;;;56.70;19.10;;;;;;;-7.21;92.49;99845.17;103656;1314;24113;-28
2021/12/23 05:00:34;;;;;;;60.50;19.90;;;;;;;-7.24;92.69;99839.73;103928;1314;24102;-29
2021/12/23 05:03:00;;;;;;;43.20;20.10;;;;;;;-7.25;93.17;99828.32;103785;1312;22725;-28
2021/12/23 05:05:26;;;;;;;57.20;19.50;;;;;;;-7.23;93.57;99820.20;103806;1314;24213;-29
2021/12/23 05:07:52;;;;;;;56.60;20.60;;;;;;;-7.26;93.41;99809.20;103877;1314;24201;-25
2021/12/23 05:10:19;;;;;;;55.40;16.20;;;;;;;-7.26;93.17;99812.52;103596;1308;24210;-29
2021/12/23 05:12:46;;;;;;;45.20;18.20;;;;;;;-7.28;92.93;99809.66;103752;1305;24344;-26
2021/12/23 05:15:16;;;;;;;55.80;20.10;;;;;;;-7.31;92.83;99816.22;103850;1312;22455;-29
2021/12/23 05:17:42;;;;;;;76.40;22.10;;;;;;;-7.29;93.08;99815.95;103987;1312;22602;-30
2021/12/23 05:20:09;;;;;;;55.50;18.40;;;;;;;-7.24;92.92;99818.89;103800;1314;24179;-25
2021/12/23 05:22:35;;;;;;;54.90;18.50;;;;;;;-7.22;92.99;99813.39;103654;1305;24145;-29
2021/12/23 05:25:01;;;;;;;52.00;17.00;;;;;;;-7.22;92.94;99806.07;103717;1316;24202;-26
2021/12/23 05:27:27;;;;;;;41.90;15.90;;;;;;;-7.22;93.63;99802.22;103810;1312;24153;-26
2021/12/23 05:29:52;;;;;;;52.20;16.80;;;;;;;-7.18;93.60;99795.61;103694;1314;22464;-26
2021/12/23 05:32:18;;;;;;;39.00;14.20;;;;;;;-7.18;92.87;99784.13;103831;1312;24304;-26
2021/12/23 05:34:44;;;;;;;52.80;16.70;;;;;;;-7.18;93.25;99784.61;103751;1312;24198;-26
2021/12/23 05:37:10;;;;;;;41.50;15.70;;;;;;;-7.12;93.64;99784.00;103804;1316;22719;-26
2021/12/23 05:39:36;;;;;;;46.00;16.50;;;;;;;-7.05;93.53;99780.52;103922;1312;22546;-25
2021/12/23 05:42:02;;;;;;;47.00;16.30;;;;;;;-7.04;93.01;99777.16;103541;1307;24193;-25
2021/12/23 05:44:28;;;;;;;41.50;15.40;;;;;;;-7.04;92.95;99767.04;103880;1312;22456;-29
2021/12/23 05:46:54;;;;;;;47.20;19.50;;;;;;;-7.00;93.07;99760.95;103889;1312;24177;-28
2021/12/23 05:49:20;;;;;;;52.70;21.30;;;;;;;-6.97;93.34;99758.03;103778;1312;22835;-25
2021/12/23 05:51:46;;;;;;;59.20;22.90;;;;;;;-6.97;92.72;99755.27;103735;1312;24239;-25
2021/12/23 05:54:12;;;;;;;66.80;21.50;;;;;;;-6.98;92.76;99755.11;103758;1312;22900;-25
2021/12/23 05:56:37;;;;;;;46.80;19.70;;;;;;;-6.97;92.79;99753.85;103734;1313;22790;-28
2021/12/23 05:59:04;;;;;;;63.90;18.70;;;;;;;-6.96;92.78;99756.09;103839;1312;24107;-29
2021/12/23 06:01:31;;;;;;;64.60;20.70;;;;;;;-6.98;92.69;99754.94;103817;1314;22706;-25
2021/12/23 06:03:57;;;;;;;50.20;16.90;;;;;;;-6.98;92.55;99754.23;103914;1314;22877;-25
2021/12/23 06:06:23;;;;;;;49.70;22.30;;;;;;;-6.99;92.33;99748.04;103870;1313;22467;-26
2021/12/23 06:08:49;;;;;;;49.20;20.60;;;;;;;-6.94;92.15;99743.96;103644;1316;23924;-29
2021/12/23 06:11:15;;;;;;;47.60;18.00;;;;;;;-6.97;92.22;99741.16;103892;1312;24258;-29
2021/12/23 06:13:41;;;;;;;47.90;17.80;;;;;;;-6.95;92.43;99735.63;103956;1313;24215;-31
2021/12/23 06:16:07;;;;;;;45.50;16.20;;;;;;;-6.87;93.07;99733.98;103891;1314;24274;-26
2021/12/23 06:18:33;;;;;;;33.40;15.20;;;;;;;-6.82;92.20;99730.43;103945;1313;24250;-29
2021/12/23 06:20:59;;;;;;;30.30;12.30;;;;;;;-6.84;92.39;99724.11;103762;1314;22461;-25
2021/12/23 06:23:25;;;;;;;31.40;13.60;;;;;;;-6.78;92.36;99719.45;103875;1316;24150;-26
2021/12/23 06:25:52;;;;;;;37.80;9.00;;;;;;;-6.76;92.25;99720.93;103809;1314;24288;-26
2021/12/23 06:28:18;;;;;;;34.80;13.40;;;;;;;-6.71;92.16;99724.50;103795;1314;22465;-25
2021/12/23 06:30:44;;;;;;;27.50;11.20;;;;;;;-6.70;91.93;99724.23;103778;1312;22814;-30
2021/12/23 06:33:11;;;;;;;30.60;13.40;;;;;;;-6.65;91.84;99720.20;103695;1314;24122;-26
2021/12/23 06:35:37;;;;;;;21.50;9.00;;;;;;;-6.62;91.70;99721.23;103856;1313;24121;-28
2021/12/23 06:38:05;;;;;;;28.90;11.50;;;;;;;-6.52;92.31;99718.46;103907;1312;24261;-26
2021/12/23 06:40:31;;;;;;;26.60;9.40;;;;;;;-6.44;91.55;99715.73;103810;1315;22586;-30
2021/12/23 06:42:57;;;;;;;35.90;12.90;;;;;;;-6.40;91.43;99707.68;103823;1312;24340;-30
2021/12/23 06:45:23;;;;;;;19.90;10.80;;;;;;;-6.37;91.28;99704.42;103926;1312;23816;-27
2021/12/23 06:47:49;;;;;;;29.30;10.70;;;;;;;-6.30;91.34;99706.47;103721;1314;24247;-30
2021/12/23 06:50:17;;;;;;;28.30;12.20;;;;;;;-6.26;91.05;99709.73;103843;1311;24375;-29
2021/12/23 06:52:43;;;;;;;23.60;9.20;;;;;;;-6.20;91.36;99707.15;103922;1312;23736;-28
2021/12/23 06:55:10;;;;;;;22.90;8.60;;;;;;;-6.16;91.16;99697.70;103754;1314;23747;-25
2021/12/23 06:57:37;;;;;;;22.40;11.00;;;;;;;-6.09;90.54;99700.11;103885;1316;24309;-25
2021/12/23 07:00:05;;;;;;;19.10;7.90;;;;;;;-6.08;90.61;99694.13;103834;1311;24152;-25
2021/12/23 07:02:34;;;;;;;18.10;9.20;;;;;;;-6.04;90.52;99697.21;103803;1313;24143;-26
2021/12/23 07:05:00;;;;;;;19.50;10.90;;;;;;;-5.92;90.50;99699.00;103803;1312;24122;-29
2021/12/23 07:07:29;;;;;;;23.20;9.00;;;;;;;-5.85;89.88;99695.60;103656;1314;24146;-29
2021/12/23 07:09:55;;;;;;;162.70;43.20;;;;;;;-5.80;90.14;99699.86;103751;1314;24136;-26
2021/12/23 07:12:22;;;;;;;112.20;29.00;;;;;;;-5.69;89.68;99692.60;103746;1312;24253;-28
2021/12/23 07:14:47;;;;;;;340.10;110.30;;;;;;;-5.67;89.12;99695.64;103689;1316;24132;-29
2021/12/23 07:17:14;;;;;;;518.30;197.50;;;;;;;-5.70;89.90;99695.62;103756;1312;24162;-26
2021/12/23 07:19:39;;;;;;;534.90;185.90;;;;;;;-5.52;89.24;99691.11;103712;1313;24261;-29
2021/12/23 07:22:05;;;;;;;229.90;78.20;;;;;;;-5.54;89.32;99686.17;103723;1312;24267;-27
2021/12/23 07:24:31;;;;;;;184.50;62.70;;;;;;;-5.49;89.47;99687.65;103607;1312;24225;-26
2021/12/23 07:26:57;;;;;;;218.00;64.70;;;;;;;-5.43;89.41;99686.40;103495;1313;24132;-25
2021/12/23 07:29:23;;;;;;;53.00;20.30;;;;;;;-5.39;89.24;99682.17;103742;1312;24261;-25
2021/12/23 07:31:49;;;;;;;60.10;27.60;;;;;;;-5.24;87.88;99684.60;103685;1312;24132;-27
2021/12/23 07:34:15;;;;;;;139.60;36.50;;;;;;;-5.30;88.51;99682.71;103656;1314;24250;-29
2021/12/23 07:36:40;;;;;;;73.50;17.90;;;;;;;-5.25;88.80;99672.29;103707;1312;22438;-26
2021/12/23 07:39:07;;;;;;;58.80;16.90;;;;;;;-5.20;88.94;99665.51;103666;1312;24165;-29
2021/12/23 07:41:33;;;;;;;75.40;15.30;;;;;;;-5.15;88.48;99661.58;103705;1316;24147;-25
2021/12/23 07:44:03;;;;;;;158.00;41.40;;;;;;;-5.10;88.60;99660.38;103712;1314;22561;-25
2021/12/23 07:46:30;;;;;;;92.10;29.60;;;;;;;-5.05;88.48;99656.24;103650;1305;24327;-25
2021/12/23 07:48:56;;;;;;;72.20;29.30;;;;;;;-4.99;88.40;99654.67;103744;1314;24222;-26
2021/12/23 07:51:22;;;;;;;88.20;20.30;;;;;;;-4.86;88.50;99648.83;103726;1310;23926;-25
2021/12/23 07:53:48;;;;;;;140.00;29.90;;;;;;;-4.75;88.06;99640.50;103673;1314;24144;-26
2021/12/23 07:56:14;;;;;;;46.80;16.30;;;;;;;-4.74;87.32;99629.42;103777;1310;24225;-29
2021/12/23 07:58:40;;;;;;;59.90;18.90;;;;;;;-4.75;86.61;99629.30;103650;1314;24249;-29
2021/12/23 08:01:06;;;;;;;30.10;13.00;;;;;;;-4.68;87.26;99621.35;103596;1309;24210;-29
2021/12/23 08:03:33;;;;;;;113.70;25.50;;;;;;;-4.59;86.84;99619.21;103727;1313;24189;-26
2021/12/23 08:05:59;;;;;;;126.20;56.70;;;;;;;-4.54;86.68;99612.27;103748;1315;24251;-29
2021/12/23 08:08:25;;;;;;;89.10;35.90;;;;;;;-4.44;86.63;99614.10;103756;1313;24140;-29
2021/12/23 08:10:51;;;;;;;78.30;16.80;;;;;;;-4.42;86.43;99610.17;103681;1312;24258;-26
2021/12/23 08:13:17;;;;;;;105.80;23.50;;;;;;;-4.36;86.47;99608.70;103637;1314;24565;-27
2021/12/23 08:15:43;;;;;;;28.80;11.70;;;;;;;-4.22;87.05;99610.27;103776;1313;24132;-26
2021/12/23 08:18:09;;;;;;;31.50;11.80;;;;;;;-4.09;86.12;99607.33;103726;1314;24241;-26
2021/12/23 08:20:35;;;;;;;25.70;10.50;;;;;;;-3.98;84.95;99597.34;103740;1312;24261;-26
2021/12/23 08:23:01;;;;;;;26.90;12.80;;;;;;;-4.07;84.65;99591.80;103682;1312;24125;-26
2021/12/23 08:25:27;;;;;;;30.10;13.10;;;;;;;-4.04;83.87;99583.55;103718;1314;24159;-29
2021/12/23 08:27:54;;;;;;;42.80;14.30;;;;;;;-4.03;84.28;99583.32;103585;1313;24360;-26
2021/12/23 08:30:20;;;;;;;31.00;12.30;;;;;;;-4.11;84.70;99576.89;103772;1312;24161;-26
2021/12/23 08:32:47;;;;;;;26.50;11.30;;;;;;;-3.98;85.24;99575.67;103665;1314;24261;-29
2021/12/23 08:35:13;;;;;;;37.30;13.20;;;;;;;-3.89;85.22;99578.92;103730;1304;24158;-29
2021/12/23 08:37:40;;;;;;;29.60;11.00;;;;;;;-3.78;84.87;99578.52;103710;1312;24192;-26
2021/12/23 08:40:07;;;;;;;32.10;13.00;;;;;;;-3.66;84.57;99578.25;103697;1312;24257;-26
2021/12/23 08:42:33;;;;;;;46.30;13.90;;;;;;;-3.61;84.32;99570.97;103714;1314;22453;-26
2021/12/23 08:44:59;;;;;;;37.90;16.50;;;;;;;-3.63;83.84;99564.46;103821;1313;22442;-29
2021/12/23 08:47:25;;;;;;;35.80;15.60;;;;;;;-3.51;83.06;99562.58;103774;1310;22465;-26
2021/12/23 08:49:51;;;;;;;27.30;13.80;;;;;;;-3.52;82.86;99558.42;103820;1314;24264;-29
2021/12/23 08:52:17;;;;;;;34.40;12.80;;;;;;;-3.49;83.06;99557.24;103850;1312;24151;-29
2021/12/23 08:54:43;;;;;;;24.40;9.30;;;;;;;-3.42;83.30;99559.35;103584;1313;24150;-25
2021/12/23 08:57:09;;;;;;;37.60;13.40;;;;;;;-3.41;83.26;99557.35;103669;1304;24204;-29
2021/12/23 08:59:35;;;;;;;37.20;15.60;;;;;;;-3.31;83.06;99561.03;103763;1307;22606;-26
2021/12/23 09:02:02;;;;;;;31.90;15.50;;;;;;;-3.27;83.24;99562.70;103789;1304;24243;-29
2021/12/23 09:04:29;;;;;;;30.80;13.50;;;;;;;-3.20;83.12;99557.65;103867;1305;24272;-26
2021/12/23 09:06:55;;;;;;;35.80;15.90;;;;;;;-3.24;82.62;99557.64;103578;1310;24121;-29
2021/12/23 09:09:23;;;;;;;27.00;11.90;;;;;;;-3.19;82.69;99542.08;103702;1312;24159;-29
2021/12/23 09:11:49;;;;;;;36.80;16.60;;;;;;;-3.25;83.03;99532.25;103759;1314;24235;-26
2021/12/23 09:14:15;;;;;;;33.80;12.40;;;;;;;-3.16;82.78;99527.60;103698;1315;24092;-26
2021/12/23 09:16:41;;;;;;;45.50;17.90;;;;;;;-3.18;83.46;99530.20;103747;1308;24188;-28
2021/12/23 09:19:09;;;;;;;45.90;15.60;;;;;;;-3.12;83.67;99529.27;103867;1312;24120;-27
2021/12/23 09:21:35;;;;;;;31.80;14.70;;;;;;;-3.10;83.46;99527.89;103902;1313;22836;-29
2021/12/23 09:24:02;;;;;;;32.90;15.00;;;;;;;-2.88;82.22;99525.62;103764;1314;22461;-29
2021/12/23 09:26:30;;;;;;;36.80;15.80;;;;;;;-2.90;82.74;99522.97;103744;1312;24210;-26
2021/12/23 09:29:07;;;;;;;39.70;13.90;;;;;;;-2.87;82.68;99509.63;103700;1314;24131;-26
2021/12/23 09:34:02;;;;;;;27.10;12.20;;;;;;;-2.63;81.90;99498.31;103712;1312;22473;-29
2021/12/23 09:36:28;;;;;;;47.50;18.60;;;;;;;-2.62;81.65;99491.08;103675;1312;24254;-29
2021/12/23 09:38:54;;;;;;;197.10;58.60;;;;;;;-2.57;81.88;99482.95;103707;1312;24179;-28
2021/12/23 09:41:20;;;;;;;103.20;31.40;;;;;;;-2.55;81.54;99480.70;103619;1314;24248;-29
2021/12/23 09:43:47;;;;;;;31.30;12.10;;;;;;;-2.49;81.87;99474.46;103669;1313;24235;-30
2021/12/23 09:46:16;;;;;;;27.70;9.50;;;;;;;-2.39;81.04;99466.21;103729;1312;24153;-26
2021/12/23 09:48:42;;;;;;;39.70;11.90;;;;;;;-2.32;80.43;99459.44;103738;1312;24203;-29
2021/12/23 09:51:09;;;;;;;30.00;14.20;;;;;;;-2.41;80.59;99453.54;103686;1312;24153;-29
2021/12/23 09:53:37;;;;;;;41.00;15.60;;;;;;;-2.35;80.75;99443.48;103765;1312;22723;-30
2021/12/23 09:56:03;;;;;;;29.80;15.10;;;;;;;-2.31;80.80;99432.83;103744;1316;22817;-27
2021/12/23 09:58:29;;;;;;;26.70;12.10;;;;;;;-2.37;81.26;99428.02;103693;1304;24260;-30
2021/12/23 10:00:55;;;;;;;32.50;14.70;;;;;;;-2.20;80.04;99430.11;103539;1312;24277;-30
2021/12/23 10:03:22;;;;;;;37.00;13.80;;;;;;;-2.36;80.81;99429.14;103836;1312;24548;-26
2021/12/23 10:05:50;;;;;;;31.60;12.20;;;;;;;-2.21;80.60;99427.38;104009;1306;22752;-29
2021/12/23 10:08:17;;;;;;;52.20;13.60;;;;;;;-2.20;80.21;99420.62;103875;1304;24086;-30
2021/12/23 10:10:49;;;;;;;68.00;27.80;;;;;;;-2.17;80.13;99411.64;103760;1313;24146;-30
2021/12/23 10:30:05;;;;;;;25.00;12.70;;;;;;;-1.86;77.94;99352.77;103790;1314;22900;-30
2021/12/23 10:31:08;;;;;;;27.50;12.70;;;;;;;-1.92;78.83;99356.92;103879;1312;22485;-30
2021/12/23 10:38:36;;;;;;;24.80;13.30;;;;;;;-1.71;78.68;99339.13;104063;1313;24464;-26
2021/12/23 10:41:07;;;;;;;23.30;10.30;;;;;;;-1.69;78.39;99337.59;104114;1314;24248;-31
2021/12/23 10:43:35;;;;;;;19.70;10.20;;;;;;;-1.75;78.72;99332.81;104215;1314;22500;-30
2021/12/23 10:46:05;;;;;;;36.60;15.40;;;;;;;-1.53;78.02;99323.00;104057;1314;22575;-30
2021/12/23 10:48:33;;;;;;;25.80;12.10;;;;;;;-1.62;77.35;99316.69;103776;1314;24162;-27
2021/12/23 10:51:05;;;;;;;20.40;10.30;;;;;;;-1.62;77.81;99309.95;104050;1316;23865;-31
2021/12/23 10:53:45;;;;;;;16.70;10.50;;;;;;;-1.61;78.02;99318.52;104059;1310;25946;-27
2021/12/23 10:59:00;;;;;;;25.10;9.30;;;;;;;-1.49;76.79;99308.45;104023;1314;22458;-27
2021/12/23 11:01:26;;;;;;;22.10;10.80;;;;;;;-1.56;77.12;99304.61;103478;1310;24258;-27
2021/12/23 11:03:53;;;;;;;20.10;10.50;;;;;;;-1.50;77.10;99284.09;104083;1312;24241;-30
2021/12/23 11:06:30;;;;;;;10.10;5.30;;;;;;;-1.65;77.41;99270.05;103995;1314;24394;-29
2021/12/23 11:11:48;;;;;;;15.70;9.70;;;;;;;-1.58;77.30;99259.98;104148;1314;22753;-27
2021/12/23 11:35:31;;;;;;;25.10;13.40;;;;;;;-1.47;76.03;99208.56;103876;1314;22463;-25
2021/12/23 11:37:16;;;;;;;16.70;7.50;;;;;;;-1.30;75.17;99217.36;103868;1314;22472;-25
2021/12/23 11:42:21;;;;;;;20.60;8.50;;;;;;;-1.29;75.28;99206.17;104209;1304;22783;-25
2021/12/23 11:44:47;;;;;;;30.10;13.80;;;;;;;-1.31;75.53;99195.63;104071;1314;24147;-27
2021/12/23 11:47:15;;;;;;;19.70;10.20;;;;;;;-1.35;75.64;99182.66;103878;1314;24122;-30
2021/12/23 11:49:44;;;;;;;17.20;8.40;;;;;;;-1.31;75.81;99170.85;103739;1310;24162;-26
2021/12/23 11:52:10;;;;;;;22.80;10.00;;;;;;;-1.12;74.77;99170.91;103733;1314;22729;-29
2021/12/23 11:54:39;;;;;;;33.30;14.50;;;;;;;-1.22;75.40;99161.69;103702;1304;24355;-26
2021/12/23 11:57:06;;;;;;;41.00;19.00;;;;;;;-1.16;75.53;99150.70;103708;1314;24118;-29
2021/12/23 11:59:33;;;;;;;28.40;13.00;;;;;;;-1.06;75.33;99134.14;103294;1309;632337;-26
2021/12/23 12:01:59;;;;;;;16.80;9.50;;;;;;;-1.04;74.20;99128.38;103714;1314;24298;-29
2021/12/23 12:04:28;;;;;;;30.20;10.70;;;;;;;-1.13;74.81;99125.08;103775;1314;24148;-26
2021/12/23 12:06:55;;;;;;;25.00;10.60;;;;;;;-1.10;75.26;99118.88;103886;1304;23078;-26
2021/12/23 12:09:26;;;;;;;23.60;10.20;;;;;;;-0.99;74.85;99122.33;103936;1314;24320;-29